sensor_id;sensor_type;location;lat;lon;timestamp;pressure;altitude;pressure_sealevel;temperature;humidity
10992;BME280;5549;47.028;15.514;2022-08-23T00:00:14;96177.19;;;19.06;80.13
10992;BME280;5549;47.028;15.514;2022-08-23T00:02:42;96179.50;;;19.09;80.12
10992;BME280;5549;47.028;15.514;2022-08-23T00:05:12;96181.16;;;19.10;79.94
10992;BME280;5549;47.028;15.514;2022-08-23T00:07:42;96186.72;;;19.15;79.83
10992;BME280;5549;47.028;15.514;2022-08-23T00:10:15;96179.38;;;19.17;79.76
10992;BME280;5549;47.028;15.514;2022-08-23T00:12:45;96186.97;;;19.20;79.59
10992;BME280;5549;47.028;15.514;2022-08-23T00:15:19;96194.97;;;19.20;79.21
10992;BME280;5549;47.028;15.514;2022-08-23T00:17:47;96198.00;;;19.17;79.41
10992;BME280;5549;47.028;15.514;2022-08-23T00:20:18;96197.56;;;19.13;79.50
10992;BME280;5549;47.028;15.514;2022-08-23T00:22:48;96202.69;;;19.15;79.39
10992;BME280;5549;47.028;15.514;2022-08-23T00:25:16;96195.53;;;19.15;79.67
10992;BME280;5549;47.028;15.514;2022-08-23T00:27:44;96195.72;;;19.14;79.66
10992;BME280;5549;47.028;15.514;2022-08-23T00:30:14;96199.16;;;19.08;80.34
10992;BME280;5549;47.028;15.514;2022-08-23T00:32:45;96210.53;;;19.02;80.25
10992;BME280;5549;47.028;15.514;2022-08-23T00:35:15;96205.97;;;18.96;80.42
10992;BME280;5549;47.028;15.514;2022-08-23T00:37:46;96207.72;;;18.88;80.96
10992;BME280;5549;47.028;15.514;2022-08-23T00:40:17;96206.28;;;18.86;81.01
10992;BME280;5549;47.028;15.514;2022-08-23T00:42:50;96208.38;;;18.90;80.88
10992;BME280;5549;47.028;15.514;2022-08-23T00:45:55;96206.34;;;18.92;80.78
10992;BME280;5549;47.028;15.514;2022-08-23T00:48:45;96213.31;;;18.94;80.27
10992;BME280;5549;47.028;15.514;2022-08-23T00:51:18;96202.09;;;18.98;80.31
10992;BME280;5549;47.028;15.514;2022-08-23T00:54:00;96204.75;;;18.98;80.14
10992;BME280;5549;47.028;15.514;2022-08-23T00:56:33;96198.22;;;19.01;79.92
10992;BME280;5549;47.028;15.514;2022-08-23T00:59:02;96212.16;;;19.03;79.79
10992;BME280;5549;47.028;15.514;2022-08-23T01:01:33;96209.69;;;19.01;79.68
10992;BME280;5549;47.028;15.514;2022-08-23T01:04:02;96209.25;;;18.98;80.39
10992;BME280;5549;47.028;15.514;2022-08-23T01:06:38;96210.47;;;18.95;80.79
10992;BME280;5549;47.028;15.514;2022-08-23T01:09:13;96210.38;;;18.88;80.96
10992;BME280;5549;47.028;15.514;2022-08-23T01:11:51;96211.53;;;18.79;82.26
10992;BME280;5549;47.028;15.514;2022-08-23T01:14:27;96201.63;;;18.73;82.51
10992;BME280;5549;47.028;15.514;2022-08-23T01:17:02;96198.34;;;18.71;82.76
10992;BME280;5549;47.028;15.514;2022-08-23T01:19:37;96203.66;;;18.71;82.30
10992;BME280;5549;47.028;15.514;2022-08-23T01:22:14;96212.66;;;18.70;82.33
10992;BME280;5549;47.028;15.514;2022-08-23T01:24:46;96210.81;;;18.71;82.03
10992;BME280;5549;47.028;15.514;2022-08-23T01:27:16;96210.63;;;18.72;81.80
10992;BME280;5549;47.028;15.514;2022-08-23T01:29:44;96209.63;;;18.73;81.47
10992;BME280;5549;47.028;15.514;2022-08-23T01:32:13;96209.81;;;18.72;81.01
10992;BME280;5549;47.028;15.514;2022-08-23T01:34:43;96214.03;;;18.66;80.48
10992;BME280;5549;47.028;15.514;2022-08-23T01:37:11;96209.09;;;18.63;80.55
10992;BME280;5549;47.028;15.514;2022-08-23T01:39:42;96210.63;;;18.57;80.56
10992;BME280;5549;47.028;15.514;2022-08-23T01:42:12;96210.19;;;18.54;80.88
10992;BME280;5549;47.028;15.514;2022-08-23T01:44:40;96215.69;;;18.52;81.13
10992;BME280;5549;47.028;15.514;2022-08-23T01:47:07;96206.81;;;18.45;81.37
10992;BME280;5549;47.028;15.514;2022-08-23T01:49:36;96207.81;;;18.44;81.27
10992;BME280;5549;47.028;15.514;2022-08-23T01:52:04;96206.91;;;18.37;82.05
10992;BME280;5549;47.028;15.514;2022-08-23T01:54:32;96208.13;;;18.35;82.02
10992;BME280;5549;47.028;15.514;2022-08-23T01:57:00;96208.47;;;18.32;82.34
10992;BME280;5549;47.028;15.514;2022-08-23T01:59:33;96206.84;;;18.31;82.79
10992;BME280;5549;47.028;15.514;2022-08-23T02:02:00;96208.84;;;18.28;82.84
10992;BME280;5549;47.028;15.514;2022-08-23T02:04:28;96205.09;;;18.23;83.33
10992;BME280;5549;47.028;15.514;2022-08-23T02:06:57;96203.81;;;18.19;83.71
10992;BME280;5549;47.028;15.514;2022-08-23T02:09:26;96209.97;;;18.19;83.82
10992;BME280;5549;47.028;15.514;2022-08-23T02:11:54;96215.47;;;18.18;84.10
10992;BME280;5549;47.028;15.514;2022-08-23T02:14:22;96218.56;;;18.21;83.79
10992;BME280;5549;47.028;15.514;2022-08-23T02:16:53;96231.88;;;18.21;84.06
10992;BME280;5549;47.028;15.514;2022-08-23T02:19:25;96235.53;;;18.20;83.89
10992;BME280;5549;47.028;15.514;2022-08-23T02:21:53;96243.50;;;18.20;83.95
10992;BME280;5549;47.028;15.514;2022-08-23T02:24:24;96239.75;;;18.15;84.54
10992;BME280;5549;47.028;15.514;2022-08-23T02:26:56;96237.66;;;18.10;84.12
10992;BME280;5549;47.028;15.514;2022-08-23T02:29:26;96230.22;;;18.06;83.25
10992;BME280;5549;47.028;15.514;2022-08-23T02:32:00;96235.53;;;18.06;82.93
10992;BME280;5549;47.028;15.514;2022-08-23T02:34:28;96241.69;;;18.06;83.53
10992;BME280;5549;47.028;15.514;2022-08-23T02:36:57;96238.00;;;18.07;83.72
10992;BME280;5549;47.028;15.514;2022-08-23T02:39:28;96243.31;;;18.07;83.55
10992;BME280;5549;47.028;15.514;2022-08-23T02:41:56;96251.94;;;18.09;83.67
10992;BME280;5549;47.028;15.514;2022-08-23T02:44:26;96246.81;;;18.08;83.21
10992;BME280;5549;47.028;15.514;2022-08-23T02:46:53;96243.31;;;18.07;82.82
10992;BME280;5549;47.028;15.514;2022-08-23T02:49:22;96255.97;;;18.05;82.71
10992;BME280;5549;47.028;15.514;2022-08-23T02:51:52;96247.34;;;18.03;82.67
10992;BME280;5549;47.028;15.514;2022-08-23T02:54:22;96254.59;;;17.94;83.34
10992;BME280;5549;47.028;15.514;2022-08-23T02:56:50;96248.44;;;17.94;83.35
10992;BME280;5549;47.028;15.514;2022-08-23T02:59:18;96245.88;;;17.86;83.79
10992;BME280;5549;47.028;15.514;2022-08-23T03:01:45;96256.50;;;17.86;83.68
10992;BME280;5549;47.028;15.514;2022-08-23T03:04:15;96249.81;;;17.75;83.96
10992;BME280;5549;47.028;15.514;2022-08-23T03:06:44;96251.81;;;17.73;84.37
10992;BME280;5549;47.028;15.514;2022-08-23T03:09:12;96253.81;;;17.71;83.94
10992;BME280;5549;47.028;15.514;2022-08-23T03:11:44;96248.06;;;17.68;84.01
10992;BME280;5549;47.028;15.514;2022-08-23T03:14:15;96252.34;;;17.69;83.95
10992;BME280;5549;47.028;15.514;2022-08-23T03:16:43;96249.69;;;17.69;84.15
10992;BME280;5549;47.028;15.514;2022-08-23T03:19:11;96253.38;;;17.68;83.81
10992;BME280;5549;47.028;15.514;2022-08-23T03:21:39;96250.41;;;17.62;84.07
10992;BME280;5549;47.028;15.514;2022-08-23T03:24:11;96253.88;;;17.63;83.88
10992;BME280;5549;47.028;15.514;2022-08-23T03:26:43;96260.19;;;17.62;83.98
10992;BME280;5549;47.028;15.514;2022-08-23T03:29:11;96254.88;;;17.62;83.76
10992;BME280;5549;47.028;15.514;2022-08-23T03:31:39;96259.38;;;17.61;83.87
10992;BME280;5549;47.028;15.514;2022-08-23T03:34:07;96247.09;;;17.60;83.83
10992;BME280;5549;47.028;15.514;2022-08-23T03:36:34;96252.59;;;17.59;83.85
10992;BME280;5549;47.028;15.514;2022-08-23T03:39:05;96249.94;;;17.59;83.77
10992;BME280;5549;47.028;15.514;2022-08-23T03:41:36;96260.38;;;17.60;83.22
10992;BME280;5549;47.028;15.514;2022-08-23T03:44:07;96255.06;;;17.60;82.99
10992;BME280;5549;47.028;15.514;2022-08-23T03:46:34;96258.72;;;17.59;82.89
10992;BME280;5549;47.028;15.514;2022-08-23T03:49:03;96264.22;;;17.58;83.27
10992;BME280;5549;47.028;15.514;2022-08-23T03:51:32;96264.56;;;17.55;83.38
10992;BME280;5549;47.028;15.514;2022-08-23T03:54:01;96275.53;;;17.52;83.56
10992;BME280;5549;47.028;15.514;2022-08-23T03:56:36;96275.06;;;17.48;83.82
10992;BME280;5549;47.028;15.514;2022-08-23T03:59:10;96279.03;;;17.52;83.71
10992;BME280;5549;47.028;15.514;2022-08-23T04:01:37;96278.19;;;17.52;83.68
10992;BME280;5549;47.028;15.514;2022-08-23T04:04:05;96275.38;;;17.53;83.53
10992;BME280;5549;47.028;15.514;2022-08-23T04:06:38;96280.13;;;17.58;83.45
10992;BME280;5549;47.028;15.514;2022-08-23T04:09:06;96276.84;;;17.56;83.35
10992;BME280;5549;47.028;15.514;2022-08-23T04:11:36;96276.66;;;17.57;83.43
10992;BME280;5549;47.028;15.514;2022-08-23T04:14:06;96272.81;;;17.60;83.61
10992;BME280;5549;47.028;15.514;2022-08-23T04:16:35;96281.59;;;17.60;83.68
10992;BME280;5549;47.028;15.514;2022-08-23T04:19:04;96276.66;;;17.57;83.59
10992;BME280;5549;47.028;15.514;2022-08-23T04:21:36;96280.13;;;17.58;83.82
10992;BME280;5549;47.028;15.514;2022-08-23T04:24:04;96287.09;;;17.59;83.85
10992;BME280;5549;47.028;15.514;2022-08-23T04:26:36;96294.88;;;17.60;83.39
10992;BME280;5549;47.028;15.514;2022-08-23T04:29:06;96285.44;;;17.58;83.54
10992;BME280;5549;47.028;15.514;2022-08-23T04:31:34;96291.75;;;17.57;83.56
10992;BME280;5549;47.028;15.514;2022-08-23T04:34:02;96291.94;;;17.55;83.55
10992;BME280;5549;47.028;15.514;2022-08-23T04:36:37;96293.13;;;17.53;83.74
10992;BME280;5549;47.028;15.514;2022-08-23T04:39:05;96305.56;;;17.52;83.35
10992;BME280;5549;47.028;15.514;2022-08-23T04:41:34;96303.56;;;17.54;83.28
10992;BME280;5549;47.028;15.514;2022-08-23T04:44:23;96305.88;;;17.57;83.24
10992;BME280;5549;47.028;15.514;2022-08-23T04:46:54;96309.53;;;17.56;82.87
10992;BME280;5549;47.028;15.514;2022-08-23T04:49:21;96311.53;;;17.54;82.89
10992;BME280;5549;47.028;15.514;2022-08-23T04:51:51;96321.50;;;17.52;83.03
10992;BME280;5549;47.028;15.514;2022-08-23T04:54:19;96321.69;;;17.51;82.80
10992;BME280;5549;47.028;15.514;2022-08-23T04:56:50;96321.69;;;17.51;83.10
10992;BME280;5549;47.028;15.514;2022-08-23T04:59:17;96320.84;;;17.50;82.99
10992;BME280;5549;47.028;15.514;2022-08-23T05:01:47;96325.16;;;17.51;83.02
10992;BME280;5549;47.028;15.514;2022-08-23T05:04:17;96328.66;;;17.52;83.16
10992;BME280;5549;47.028;15.514;2022-08-23T05:06:47;96325.81;;;17.53;83.05
10992;BME280;5549;47.028;15.514;2022-08-23T05:09:17;96325.81;;;17.53;83.10
10992;BME280;5549;47.028;15.514;2022-08-23T05:11:45;96340.91;;;17.53;83.23
10992;BME280;5549;47.028;15.514;2022-08-23T05:14:12;96339.78;;;17.47;82.61
10992;BME280;5549;47.028;15.514;2022-08-23T05:16:42;96348.22;;;17.51;82.86
10992;BME280;5549;47.028;15.514;2022-08-23T05:19:14;96341.75;;;17.53;82.79
10992;BME280;5549;47.028;15.514;2022-08-23T05:21:41;96346.69;;;17.56;82.73
10992;BME280;5549;47.028;15.514;2022-08-23T05:24:09;96353.31;;;17.60;82.93
10992;BME280;5549;47.028;15.514;2022-08-23T05:26:36;96354.13;;;17.61;82.82
10992;BME280;5549;47.028;15.514;2022-08-23T05:29:07;96351.66;;;17.59;82.74
10992;BME280;5549;47.028;15.514;2022-08-23T05:31:35;96360.28;;;17.61;82.73
10992;BME280;5549;47.028;15.514;2022-08-23T05:34:05;96350.13;;;17.65;82.38
10992;BME280;5549;47.028;15.514;2022-08-23T05:36:34;96359.91;;;17.64;82.25
10992;BME280;5549;47.028;15.514;2022-08-23T05:39:03;96361.75;;;17.64;81.76
10992;BME280;5549;47.028;15.514;2022-08-23T05:41:33;96361.09;;;17.62;82.06
10992;BME280;5549;47.028;15.514;2022-08-23T05:44:01;96360.75;;;17.65;81.66
10992;BME280;5549;47.028;15.514;2022-08-23T05:46:28;96368.06;;;17.63;81.75
10992;BME280;5549;47.028;15.514;2022-08-23T05:48:58;96377.84;;;17.62;81.96
10992;BME280;5549;47.028;15.514;2022-08-23T05:51:30;96376.25;;;17.53;82.22
10992;BME280;5549;47.028;15.514;2022-08-23T05:54:06;96376.56;;;17.58;81.94
10992;BME280;5549;47.028;15.514;2022-08-23T05:56:37;96373.03;;;17.66;82.06
10992;BME280;5549;47.028;15.514;2022-08-23T05:59:09;96374.63;;;17.75;82.10
10992;BME280;5549;47.028;15.514;2022-08-23T06:01:38;96370.84;;;17.92;82.52
10992;BME280;5549;47.028;15.514;2022-08-23T06:04:10;96372.16;;;18.11;82.18
10992;BME280;5549;47.028;15.514;2022-08-23T06:06:40;96376.69;;;18.25;81.73
10992;BME280;5549;47.028;15.514;2022-08-23T06:09:13;96371.38;;;18.40;81.25
10992;BME280;5549;47.028;15.514;2022-08-23T06:11:43;96370.75;;;18.53;80.36
10992;BME280;5549;47.028;15.514;2022-08-23T06:14:11;96366.00;;;18.63;79.90
10992;BME280;5549;47.028;15.514;2022-08-23T06:16:43;96368.59;;;18.71;79.58
10992;BME280;5549;47.028;15.514;2022-08-23T06:19:14;96370.13;;;18.80;78.88
10992;BME280;5549;47.028;15.514;2022-08-23T06:21:43;96371.69;;;18.89;78.51
10992;BME280;5549;47.028;15.514;2022-08-23T06:24:14;96376.28;;;18.96;77.86
10992;BME280;5549;47.028;15.514;2022-08-23T06:26:44;96386.16;;;19.02;77.53
10992;BME280;5549;47.028;15.514;2022-08-23T06:29:15;96376.81;;;19.06;77.14
10992;BME280;5549;47.028;15.514;2022-08-23T06:31:48;96383.44;;;19.10;76.91
10992;BME280;5549;47.028;15.514;2022-08-23T06:34:20;96379.38;;;19.14;76.51
10992;BME280;5549;47.028;15.514;2022-08-23T06:36:54;96382.69;;;19.16;76.12
10992;BME280;5549;47.028;15.514;2022-08-23T06:39:27;96381.31;;;19.20;75.84
10992;BME280;5549;47.028;15.514;2022-08-23T06:41:58;96388.72;;;19.25;75.56
10992;BME280;5549;47.028;15.514;2022-08-23T06:44:30;96389.19;;;19.28;75.54
10992;BME280;5549;47.028;15.514;2022-08-23T06:46:58;96388.81;;;19.31;75.51
10992;BME280;5549;47.028;15.514;2022-08-23T06:49:26;96382.28;;;19.34;75.19
10992;BME280;5549;47.028;15.514;2022-08-23T06:51:57;96391.53;;;19.38;74.98
10992;BME280;5549;47.028;15.514;2022-08-23T06:54:31;96392.81;;;19.42;74.84
10992;BME280;5549;47.028;15.514;2022-08-23T06:57:02;96394.66;;;19.41;74.66
10992;BME280;5549;47.028;15.514;2022-08-23T06:59:29;96398.59;;;19.45;74.40
10992;BME280;5549;47.028;15.514;2022-08-23T07:01:59;96397.22;;;19.49;74.61
10992;BME280;5549;47.028;15.514;2022-08-23T07:04:32;96403.84;;;19.53;74.36
10992;BME280;5549;47.028;15.514;2022-08-23T07:07:01;96398.78;;;19.59;74.25
10992;BME280;5549;47.028;15.514;2022-08-23T07:09:31;96411.53;;;19.63;74.36
10992;BME280;5549;47.028;15.514;2022-08-23T07:12:00;96407.03;;;19.64;74.24
10992;BME280;5549;47.028;15.514;2022-08-23T07:14:30;96404.16;;;19.65;74.32
10992;BME280;5549;47.028;15.514;2022-08-23T07:17:01;96408.94;;;19.70;74.23
10992;BME280;5549;47.028;15.514;2022-08-23T07:19:34;96421.50;;;19.76;74.40
10992;BME280;5549;47.028;15.514;2022-08-23T07:22:04;96416.16;;;19.76;74.09
10992;BME280;5549;47.028;15.514;2022-08-23T07:24:34;96416.16;;;19.76;73.86
10992;BME280;5549;47.028;15.514;2022-08-23T07:27:03;96416.72;;;19.71;73.10
10992;BME280;5549;47.028;15.514;2022-08-23T07:29:36;96413.69;;;19.74;73.51
10992;BME280;5549;47.028;15.514;2022-08-23T07:32:07;96418.31;;;19.87;73.92
10992;BME280;5549;47.028;15.514;2022-08-23T07:34:36;96419.22;;;19.94;74.01
10992;BME280;5549;47.028;15.514;2022-08-23T07:37:06;96421.75;;;20.02;73.62
10992;BME280;5549;47.028;15.514;2022-08-23T07:39:35;96428.47;;;19.98;73.25
10992;BME280;5549;47.028;15.514;2022-08-23T07:42:05;96425.81;;;19.98;73.74
10992;BME280;5549;47.028;15.514;2022-08-23T07:44:36;96422.13;;;19.99;74.67
10992;BME280;5549;47.028;15.514;2022-08-23T07:47:06;96420.09;;;20.01;74.67
10992;BME280;5549;47.028;15.514;2022-08-23T07:49:33;96427.09;;;20.02;74.89
10992;BME280;5549;47.028;15.514;2022-08-23T07:52:04;96430.38;;;20.04;75.15
10992;BME280;5549;47.028;15.514;2022-08-23T07:54:31;96422.00;;;20.07;74.89
10992;BME280;5549;47.028;15.514;2022-08-23T07:57:00;96422.25;;;20.12;75.15
10992;BME280;5549;47.028;15.514;2022-08-23T07:59:29;96427.84;;;20.17;75.17
10992;BME280;5549;47.028;15.514;2022-08-23T08:01:59;96424.78;;;20.21;74.82
10992;BME280;5549;47.028;15.514;2022-08-23T08:04:30;96421.34;;;20.27;74.53
10992;BME280;5549;47.028;15.514;2022-08-23T08:06:57;96423.25;;;20.33;74.79
10992;BME280;5549;47.028;15.514;2022-08-23T08:09:25;96420.56;;;20.33;74.16
10992;BME280;5549;47.028;15.514;2022-08-23T08:11:55;96415.88;;;20.35;73.67
10992;BME280;5549;47.028;15.514;2022-08-23T08:14:25;96411.84;;;20.39;74.24
10992;BME280;5549;47.028;15.514;2022-08-23T08:16:52;96418.44;;;20.43;73.39
10992;BME280;5549;47.028;15.514;2022-08-23T08:19:23;96409.84;;;20.47;73.65
10992;BME280;5549;47.028;15.514;2022-08-23T08:21:51;96413.56;;;20.53;72.97
10992;BME280;5549;47.028;15.514;2022-08-23T08:24:21;96416.28;;;20.60;73.79
10992;BME280;5549;47.028;15.514;2022-08-23T08:26:49;96423.00;;;20.49;73.42
10992;BME280;5549;47.028;15.514;2022-08-23T08:29:17;96421.34;;;20.48;73.01
10992;BME280;5549;47.028;15.514;2022-08-23T08:31:46;96409.13;;;20.60;74.33
10992;BME280;5549;47.028;15.514;2022-08-23T08:34:16;96425.22;;;20.73;74.21
10992;BME280;5549;47.028;15.514;2022-08-23T08:36:46;96411.97;;;20.59;71.02
10992;BME280;5549;47.028;15.514;2022-08-23T08:39:22;96423.47;;;20.59;73.87
10992;BME280;5549;47.028;15.514;2022-08-23T08:42:05;96422.53;;;20.73;71.91
10992;BME280;5549;47.028;15.514;2022-08-23T08:44:42;96425.34;;;20.65;72.16
10992;BME280;5549;47.028;15.514;2022-08-23T08:47:21;96427.78;;;20.60;69.13
10992;BME280;5549;47.028;15.514;2022-08-23T08:49:56;96431.56;;;20.72;70.23
10992;BME280;5549;47.028;15.514;2022-08-23T08:52:31;96429.25;;;20.63;70.54
10992;BME280;5549;47.028;15.514;2022-08-23T08:55:09;96443.31;;;20.78;69.90
10992;BME280;5549;47.028;15.514;2022-08-23T08:57:44;96439.19;;;20.75;68.51
10992;BME280;5549;47.028;15.514;2022-08-23T09:00:18;96450.69;;;20.76;69.36
10992;BME280;5549;47.028;15.514;2022-08-23T09:02:47;96455.28;;;20.82;69.41
10992;BME280;5549;47.028;15.514;2022-08-23T09:05:18;96453.91;;;20.93;68.40
10992;BME280;5549;47.028;15.514;2022-08-23T09:08:00;96456.41;;;21.01;67.32
10992;BME280;5549;47.028;15.514;2022-08-23T09:10:50;96464.41;;;21.29;69.10
10992;BME280;5549;47.028;15.514;2022-08-23T09:13:42;96464.69;;;21.47;70.28
10992;BME280;5549;47.028;15.514;2022-08-23T09:16:27;96461.03;;;21.55;67.60
10992;BME280;5549;47.028;15.514;2022-08-23T09:18:59;96462.66;;;21.56;66.05
10992;BME280;5549;47.028;15.514;2022-08-23T09:21:42;96469.25;;;21.60;67.08
10992;BME280;5549;47.028;15.514;2022-08-23T09:24:14;96468.50;;;21.79;68.95
10992;BME280;5549;47.028;15.514;2022-08-23T09:26:42;96462.97;;;21.87;66.27
10992;BME280;5549;47.028;15.514;2022-08-23T09:29:26;96469.16;;;21.94;65.01
10992;BME280;5549;47.028;15.514;2022-08-23T09:31:56;96469.22;;;22.07;64.95
10992;BME280;5549;47.028;15.514;2022-08-23T09:34:41;96467.41;;;22.28;66.46
10992;BME280;5549;47.028;15.514;2022-08-23T09:37:15;96466.19;;;22.50;66.11
10992;BME280;5549;47.028;15.514;2022-08-23T09:39:48;96460.22;;;22.61;64.41
10992;BME280;5549;47.028;15.514;2022-08-23T09:42:31;96461.28;;;22.87;65.00
10992;BME280;5549;47.028;15.514;2022-08-23T09:45:03;96453.38;;;23.18;65.17
10992;BME280;5549;47.028;15.514;2022-08-23T09:47:34;96460.16;;;23.27;62.60
10992;BME280;5549;47.028;15.514;2022-08-23T09:50:23;96464.81;;;23.52;62.79
10992;BME280;5549;47.028;15.514;2022-08-23T09:52:57;96471.00;;;23.46;57.05
10992;BME280;5549;47.028;15.514;2022-08-23T09:55:30;96475.19;;;23.28;55.70
10992;BME280;5549;47.028;15.514;2022-08-23T09:58:05;96472.06;;;23.38;59.02
10992;BME280;5549;47.028;15.514;2022-08-23T10:00:39;96483.78;;;23.50;57.41
10992;BME280;5549;47.028;15.514;2022-08-23T10:03:24;96492.41;;;23.65;60.04
10992;BME280;5549;47.028;15.514;2022-08-23T10:05:57;96498.22;;;23.56;60.82
10992;BME280;5549;47.028;15.514;2022-08-23T10:08:31;96492.94;;;23.16;61.49
10992;BME280;5549;47.028;15.514;2022-08-23T10:11:11;96507.81;;;22.99;62.83
10992;BME280;5549;47.028;15.514;2022-08-23T10:13:42;96502.44;;;22.59;63.02
10992;BME280;5549;47.028;15.514;2022-08-23T10:16:22;96511.03;;;22.35;64.12
10992;BME280;5549;47.028;15.514;2022-08-23T10:18:59;96511.03;;;22.35;63.59
10992;BME280;5549;47.028;15.514;2022-08-23T10:21:38;96502.81;;;22.36;63.73
10992;BME280;5549;47.028;15.514;2022-08-23T10:24:25;96510.63;;;22.51;63.76
10992;BME280;5549;47.028;15.514;2022-08-23T10:27:27;96515.22;;;22.57;64.55
10992;BME280;5549;47.028;15.514;2022-08-23T10:30:21;96520.09;;;22.40;65.20
10992;BME280;5549;47.028;15.514;2022-08-23T10:32:59;96526.69;;;22.38;67.58
10992;BME280;5549;47.028;15.514;2022-08-23T10:35:45;96519.25;;;22.27;64.43
10992;BME280;5549;47.028;15.514;2022-08-23T10:38:38;96523.75;;;22.20;63.28
10992;BME280;5549;47.028;15.514;2022-08-23T10:41:26;96521.69;;;22.08;62.10
10992;BME280;5549;47.028;15.514;2022-08-23T10:44:13;96528.66;;;22.03;62.72
10992;BME280;5549;47.028;15.514;2022-08-23T10:46:49;96527.44;;;22.05;63.99
10992;BME280;5549;47.028;15.514;2022-08-23T10:49:22;96527.38;;;21.99;62.02
10992;BME280;5549;47.028;15.514;2022-08-23T10:51:55;96526.97;;;22.02;62.75
10992;BME280;5549;47.028;15.514;2022-08-23T10:54:34;96529.72;;;22.08;65.17
10992;BME280;5549;47.028;15.514;2022-08-23T10:57:15;96538.69;;;22.01;65.37
10992;BME280;5549;47.028;15.514;2022-08-23T10:59:47;96537.03;;;21.93;67.65
10992;BME280;5549;47.028;15.514;2022-08-23T11:02:23;96541.34;;;21.94;67.92
10992;BME280;5549;47.028;15.514;2022-08-23T11:05:05;96542.97;;;21.89;69.39
10992;BME280;5549;47.028;15.514;2022-08-23T11:07:36;96544.97;;;21.73;69.28
10992;BME280;5549;47.028;15.514;2022-08-23T11:10:12;96545.88;;;21.46;68.72
10992;BME280;5549;47.028;15.514;2022-08-23T11:12:56;96550.94;;;21.34;68.38
10992;BME280;5549;47.028;15.514;2022-08-23T11:15:36;96548.03;;;21.29;71.37
10992;BME280;5549;47.028;15.514;2022-08-23T11:18:09;96553.41;;;21.36;72.22
10992;BME280;5549;47.028;15.514;2022-08-23T11:21:06;96550.94;;;21.34;71.32
10992;BME280;5549;47.028;15.514;2022-08-23T11:23:45;96560.56;;;21.29;70.71
10992;BME280;5549;47.028;15.514;2022-08-23T11:29:36;96560.38;;;21.30;69.12
10992;BME280;5549;47.028;15.514;2022-08-23T11:32:26;96560.53;;;21.22;68.49
10992;BME280;5549;47.028;15.514;2022-08-23T11:35:29;96570.53;;;21.20;69.02
10992;BME280;5549;47.028;15.514;2022-08-23T11:38:03;96561.50;;;21.21;68.92
10992;BME280;5549;47.028;15.514;2022-08-23T11:41:10;96567.50;;;21.23;68.28
10992;BME280;5549;47.028;15.514;2022-08-23T11:43:40;96567.31;;;21.25;65.85
10992;BME280;5549;47.028;15.514;2022-08-23T11:46:31;96560.75;;;21.27;63.58
10992;BME280;5549;47.028;15.514;2022-08-23T11:49:48;96559.34;;;21.31;63.75
10992;BME280;5549;47.028;15.514;2022-08-23T11:52:52;96553.81;;;21.33;64.39
10992;BME280;5549;47.028;15.514;2022-08-23T11:56:15;96556.03;;;21.29;65.20
10992;BME280;5549;47.028;15.514;2022-08-23T11:59:08;96553.84;;;21.39;62.75
10992;BME280;5549;47.028;15.514;2022-08-23T12:01:41;96552.66;;;21.49;62.49
10992;BME280;5549;47.028;15.514;2022-08-23T12:04:31;96552.53;;;21.63;63.86
10992;BME280;5549;47.028;15.514;2022-08-23T12:07:00;96548.22;;;21.62;61.91
10992;BME280;5549;47.028;15.514;2022-08-23T12:09:55;96551.56;;;21.77;61.70
10992;BME280;5549;47.028;15.514;2022-08-23T12:12:32;96549.34;;;21.88;60.98
10992;BME280;5549;47.028;15.514;2022-08-23T12:15:04;96556.22;;;22.03;62.54
10992;BME280;5549;47.028;15.514;2022-08-23T12:18:18;96555.63;;;22.08;59.68
10992;BME280;5549;47.028;15.514;2022-08-23T12:20:50;96555.75;;;21.93;55.90
10992;BME280;5549;47.028;15.514;2022-08-23T12:23:24;96553.56;;;22.03;57.36
10992;BME280;5549;47.028;15.514;2022-08-23T12:26:03;96552.56;;;22.18;58.38
10992;BME280;5549;47.028;15.514;2022-08-23T12:28:42;96555.88;;;22.26;58.67
10992;BME280;5549;47.028;15.514;2022-08-23T12:31:20;96554.63;;;22.16;57.31
10992;BME280;5549;47.028;15.514;2022-08-23T12:34:11;96545.63;;;22.43;58.57
10992;BME280;5549;47.028;15.514;2022-08-23T12:36:49;96549.31;;;22.35;54.73
10992;BME280;5549;47.028;15.514;2022-08-23T12:39:27;96551.59;;;22.45;57.69
10992;BME280;5549;47.028;15.514;2022-08-23T12:42:05;96551.00;;;22.50;55.85
10992;BME280;5549;47.028;15.514;2022-08-23T12:44:39;96546.03;;;22.47;53.96
10992;BME280;5549;47.028;15.514;2022-08-23T12:47:14;96547.72;;;22.54;55.03
10992;BME280;5549;47.028;15.514;2022-08-23T12:49:54;96546.50;;;22.63;54.68
10992;BME280;5549;47.028;15.514;2022-08-23T12:52:27;96545.06;;;22.61;53.04
10992;BME280;5549;47.028;15.514;2022-08-23T12:54:57;96546.28;;;22.58;53.06
10992;BME280;5549;47.028;15.514;2022-08-23T12:57:32;96540.31;;;22.56;52.26
10992;BME280;5549;47.028;15.514;2022-08-23T13:00:17;96535.78;;;22.57;53.75
10992;BME280;5549;47.028;15.514;2022-08-23T13:02:55;96539.88;;;22.46;53.61
10992;BME280;5549;47.028;15.514;2022-08-23T13:05:38;96540.94;;;22.58;52.84
10992;BME280;5549;47.028;15.514;2022-08-23T13:08:10;96538.47;;;22.63;53.81
10992;BME280;5549;47.028;15.514;2022-08-23T13:10:41;96534.97;;;22.69;54.00
10992;BME280;5549;47.028;15.514;2022-08-23T13:13:20;96543.22;;;22.75;52.71
10992;BME280;5549;47.028;15.514;2022-08-23T13:15:53;96538.47;;;22.77;52.92
10992;BME280;5549;47.028;15.514;2022-08-23T13:18:28;96539.09;;;22.79;52.39
10992;BME280;5549;47.028;15.514;2022-08-23T13:21:17;96532.91;;;22.78;53.82
10992;BME280;5549;47.028;15.514;2022-08-23T13:23:49;96531.06;;;22.72;54.11
10992;BME280;5549;47.028;15.514;2022-08-23T13:26:35;96533.31;;;22.55;53.37
10992;BME280;5549;47.028;15.514;2022-08-23T13:29:20;96533.75;;;22.59;53.82
10992;BME280;5549;47.028;15.514;2022-08-23T13:31:57;96534.53;;;22.53;54.16
10992;BME280;5549;47.028;15.514;2022-08-23T13:34:37;96530.66;;;22.68;55.00
10992;BME280;5549;47.028;15.514;2022-08-23T13:37:17;96530.66;;;22.68;54.29